Terminal Aerodrome Forecast
Issued by NWS

Home | Current Version | Previous Version | Text Only | Print | Product List | Glossary On
Versions: 1 2 3 4 5 6 7 8 9 10 11 12 13 14 15
000
FTUS46 KLOX 020500
TAFOXR
TAF
KOXR 020527Z 0206/0306 VRB03KT P6SM SKC
     FM021000 06007KT P6SM SKC WS015/06030KT
     FM021600 06014G22KT P6SM SKC
     FM022100 28010KT P6SM SKC
     FM030400 29005KT P6SM SKC=

USA.gov is the U.S. government's official web portal to all federal, state and local government web resources and services.